Time;durP1;ratioP1;P1;durP2;ratioP2;P2;SDS_P1;SDS_P2;PMS_P1;PMS_P2;Temp;Humidity;BMP_temperature;BMP_pressure;BME280_temperature;BME280_humidity;BME280_pressure;Samples;Min_cycle;Max_cycle;Signal;HPM_P1;HPM_P2
2021/07/08 00:00:20;;;;;;;8.60;7.90;;;;;;;16.62;100.00;101342.06;3573790;40;20104;-53
2021/07/08 00:02:51;;;;;;;9.82;7.90;;;;;;;16.58;100.00;101338.56;3574168;40;20435;-50
2021/07/08 00:05:22;;;;;;;8.90;8.07;;;;;;;16.63;100.00;101346.38;3574100;40;20425;-52
2021/07/08 00:07:49;;;;;;;8.43;7.72;;;;;;;16.90;100.00;101346.69;3574119;40;20097;-49
2021/07/08 00:10:28;;;;;;;8.48;7.80;;;;;;;16.69;100.00;101346.47;3574047;40;20148;-48
2021/07/08 00:12:59;;;;;;;11.27;8.23;;;;;;;16.54;100.00;101335.06;3574149;40;20115;-51
2021/07/08 00:15:28;;;;;;;8.95;8.10;;;;;;;16.41;100.00;101346.13;3573886;40;20052;-49
2021/07/08 00:17:56;;;;;;;9.23;8.52;;;;;;;16.71;100.00;101336.97;3573811;40;20069;-52
2021/07/08 00:20:25;;;;;;;9.30;8.48;;;;;;;16.47;100.00;101342.75;3574010;40;20093;-51
2021/07/08 00:22:53;;;;;;;12.38;9.10;;;;;;;16.36;100.00;101339.16;3574060;40;20097;-49
2021/07/08 00:25:24;;;;;;;9.73;8.88;;;;;;;16.48;100.00;101334.13;3573896;40;20053;-52
2021/07/08 00:27:52;;;;;;;9.98;8.98;;;;;;;16.34;100.00;101335.69;3573752;40;20088;-51
2021/07/08 00:30:20;;;;;;;9.43;8.63;;;;;;;16.21;100.00;101337.25;3573973;40;20049;-48
2021/07/08 00:32:47;;;;;;;11.90;10.15;;;;;;;16.12;100.00;101337.13;3573931;40;20097;-51
2021/07/08 00:35:20;;;;;;;11.20;9.43;;;;;;;16.07;100.00;101334.47;3573994;40;20060;-48
2021/07/08 00:37:47;;;;;;;11.57;10.38;;;;;;;16.09;100.00;101334.53;3573902;40;20057;-50
2021/07/08 00:40:15;;;;;;;12.93;11.65;;;;;;;16.05;100.00;101328.44;3573854;40;20077;-50
2021/07/08 00:42:43;;;;;;;11.88;10.77;;;;;;;16.02;100.00;101330.97;3573980;40;20819;-51
2021/07/08 00:45:13;;;;;;;11.18;10.23;;;;;;;16.02;100.00;101331.84;3573893;40;20056;-52
2021/07/08 00:47:40;;;;;;;12.60;11.40;;;;;;;15.93;100.00;101328.25;3573820;40;20064;-48
2021/07/08 00:50:10;;;;;;;12.50;11.07;;;;;;;15.95;100.00;101327.44;3573944;40;20354;-50
2021/07/08 00:52:38;;;;;;;12.57;11.30;;;;;;;15.86;100.00;101331.63;3573491;40;20419;-49
2021/07/08 00:55:07;;;;;;;12.35;11.23;;;;;;;15.83;100.00;101316.06;3573900;40;20057;-52
2021/07/08 00:57:34;;;;;;;13.68;11.55;;;;;;;15.81;100.00;101312.56;3573675;40;20081;-54
2021/07/08 01:00:03;;;;;;;13.32;12.00;;;;;;;15.86;100.00;101311.81;3573725;40;20194;-48
2021/07/08 01:02:31;;;;;;;18.13;13.05;;;;;;;15.88;100.00;101317.00;3573819;40;20474;-52
2021/07/08 01:04:58;;;;;;;14.77;12.60;;;;;;;15.78;100.00;101316.88;3573823;40;20061;-47
2021/07/08 01:07:26;;;;;;;15.38;13.00;;;;;;;15.72;100.00;101318.50;3574956;40;20324;-50
2021/07/08 01:09:53;;;;;;;14.75;13.35;;;;;;;15.70;100.00;101313.28;3575028;40;20045;-51
2021/07/08 01:12:20;;;;;;;15.50;13.45;;;;;;;15.66;100.00;101310.66;3575043;40;20648;-51
2021/07/08 01:14:47;;;;;;;19.38;11.60;;;;;;;15.82;100.00;101312.63;3574984;40;20462;-50
2021/07/08 01:17:14;;;;;;;13.77;12.20;;;;;;;15.69;100.00;101306.41;3575045;40;20116;-49
2021/07/08 01:19:42;;;;;;;13.82;12.52;;;;;;;15.61;100.00;101315.72;3574923;40;20061;-52
2021/07/08 01:22:10;;;;;;;15.70;13.57;;;;;;;15.59;100.00;101320.00;3574997;40;20079;-52
2021/07/08 01:24:38;;;;;;;18.02;13.73;;;;;;;15.53;100.00;101318.19;3575027;40;20088;-53
2021/07/08 01:27:06;;;;;;;20.00;15.18;;;;;;;15.52;100.00;101311.28;3575408;40;20112;-50
2021/07/08 01:29:34;;;;;;;20.17;14.10;;;;;;;15.53;100.00;101315.63;3575099;40;20389;-51
2021/07/08 01:32:02;;;;;;;18.98;14.18;;;;;;;15.58;100.00;101313.09;3575320;40;20139;-50
2021/07/08 01:34:29;;;;;;;17.05;13.15;;;;;;;15.56;100.00;101313.91;3574965;40;20053;-47
2021/07/08 01:36:56;;;;;;;17.40;13.40;;;;;;;15.54;100.00;101322.50;3574810;40;20471;-49
2021/07/08 01:39:23;;;;;;;16.17;14.40;;;;;;;15.49;100.00;101331.03;3574756;40;20080;-50
2021/07/08 01:41:50;;;;;;;16.67;14.88;;;;;;;15.43;100.00;101315.41;3575001;40;20195;-56
2021/07/08 01:44:17;;;;;;;16.20;14.60;;;;;;;15.49;100.00;101315.53;3574689;40;20120;-49
2021/07/08 01:46:45;;;;;;;16.40;14.70;;;;;;;15.40;100.00;101321.41;3574766;40;20072;-53
2021/07/08 01:49:13;;;;;;;16.23;14.07;;;;;;;15.36;100.00;101319.63;3574787;40;20143;-49
2021/07/08 01:51:40;;;;;;;15.90;14.20;;;;;;;15.34;100.00;101318.72;3574818;40;20333;-47
2021/07/08 01:54:10;;;;;;;15.85;14.30;;;;;;;15.38;100.00;101315.34;3575079;40;20076;-47
2021/07/08 01:56:38;;;;;;;16.38;14.68;;;;;;;15.27;100.00;101312.59;3574980;40;20065;-53
2021/07/08 01:59:05;;;;;;;18.35;15.85;;;;;;;15.30;100.00;101309.22;3575149;40;20056;-52
2021/07/08 02:01:32;;;;;;;19.05;15.88;;;;;;;15.24;100.00;101306.53;3574916;40;20064;-52
2021/07/08 02:04:00;;;;;;;16.35;14.75;;;;;;;15.29;100.00;101310.91;3574776;40;20100;-54
2021/07/08 02:06:27;;;;;;;17.30;14.23;;;;;;;15.29;100.00;101310.91;3574836;40;20088;-51
2021/07/08 02:08:55;;;;;;;18.33;16.35;;;;;;;15.24;100.00;101302.22;3574861;40;20075;-50
2021/07/08 02:11:22;;;;;;;17.10;15.30;;;;;;;15.23;100.00;101300.50;3575060;40;20159;-49
2021/07/08 02:13:49;;;;;;;19.27;14.98;;;;;;;15.23;100.00;101309.94;3574801;40;20057;-53
2021/07/08 02:16:17;;;;;;;16.55;14.52;;;;;;;15.25;100.00;101316.00;3574875;40;20052;-50
2021/07/08 02:18:45;;;;;;;14.52;12.98;;;;;;;15.24;100.00;101315.13;3574564;40;20057;-48
2021/07/08 02:21:13;;;;;;;13.25;11.88;;;;;;;15.20;100.00;101333.09;3574680;40;20057;-48
2021/07/08 02:23:40;;;;;;;12.75;11.55;;;;;;;15.19;100.00;101334.81;3574740;40;20061;-48
2021/07/08 02:26:09;;;;;;;14.20;12.90;;;;;;;15.12;100.00;101329.56;3574794;40;20695;-55
2021/07/08 02:28:38;;;;;;;15.75;14.15;;;;;;;15.10;100.00;101332.09;3574582;40;20090;-49
2021/07/08 02:31:06;;;;;;;18.58;14.00;;;;;;;15.10;100.00;101344.13;3575090;40;20326;-52
2021/07/08 02:33:33;;;;;;;14.75;13.25;;;;;;;15.13;100.00;101336.44;3574666;40;20052;-51
2021/07/08 02:36:00;;;;;;;16.58;13.93;;;;;;;15.18;100.00;101334.81;3574737;40;20049;-50
2021/07/08 02:38:27;;;;;;;15.20;13.68;;;;;;;15.22;100.00;101337.47;3574467;40;20483;-53
2021/07/08 02:40:55;;;;;;;15.57;13.10;;;;;;;15.21;100.00;101343.47;3574431;40;20084;-51
2021/07/08 02:43:23;;;;;;;21.40;14.75;;;;;;;15.14;100.00;101349.34;3573516;40;20051;-53
2021/07/08 02:45:50;;;;;;;16.27;14.77;;;;;;;15.20;100.00;101341.72;3574781;40;20081;-53
2021/07/08 02:48:19;;;;;;;16.00;14.50;;;;;;;15.06;100.00;101345.75;3574232;40;20056;-51
2021/07/08 02:50:52;;;;;;;17.63;13.65;;;;;;;15.09;100.00;101344.97;3574392;40;20128;-53
2021/07/08 02:53:19;;;;;;;14.40;13.07;;;;;;;15.11;100.00;101341.56;3574794;40;20056;-49
2021/07/08 02:55:47;;;;;;;14.40;12.57;;;;;;;15.11;100.00;101344.13;3574302;40;20104;-49
2021/07/08 02:58:14;;;;;;;13.90;12.60;;;;;;;15.11;100.00;101343.28;3574567;40;20045;-49
2021/07/08 03:00:42;;;;;;;12.52;11.38;;;;;;;15.26;100.00;101338.41;3574604;40;20053;-50
2021/07/08 03:03:10;;;;;;;14.52;13.02;;;;;;;15.12;100.00;101332.13;3574515;40;20060;-51
2021/07/08 03:05:38;;;;;;;14.38;12.98;;;;;;;15.07;100.00;101334.63;3574633;40;20323;-52
2021/07/08 03:08:05;;;;;;;18.48;14.25;;;;;;;15.05;100.00;101332.84;3574638;40;20380;-53
2021/07/08 03:10:33;;;;;;;14.68;13.18;;;;;;;15.02;100.00;101333.66;3574269;40;20041;-51
2021/07/08 03:13:01;;;;;;;15.40;13.90;;;;;;;15.01;100.00;101335.38;3574612;40;20059;-49
2021/07/08 03:15:29;;;;;;;18.27;13.30;;;;;;;14.97;100.00;101337.88;3574673;40;20105;-48
2021/07/08 03:17:57;;;;;;;16.92;15.13;;;;;;;14.94;100.00;101330.97;3574666;40;20104;-49
2021/07/08 03:20:26;;;;;;;18.23;15.55;;;;;;;14.94;100.00;101330.97;3576791;40;20308;-54
2021/07/08 03:22:54;;;;;;;17.45;14.70;;;;;;;14.95;100.00;101332.69;3574396;40;20093;-53
2021/07/08 03:25:22;;;;;;;19.38;17.38;;;;;;;14.97;100.00;101340.44;3574184;40;20517;-53
2021/07/08 03:27:50;;;;;;;19.77;17.42;;;;;;;15.01;100.00;101335.38;3574290;40;20085;-50
2021/07/08 03:30:21;;;;;;;20.88;17.77;;;;;;;15.16;100.00;101352.84;3573797;40;20340;-49
2021/07/08 03:32:50;;;;;;;21.35;19.10;;;;;;;15.05;100.00;101354.34;3574325;40;20068;-50
2021/07/08 03:35:23;;;;;;;23.00;19.33;;;;;;;14.98;100.00;101358.53;3574293;40;20049;-51
2021/07/08 03:37:50;;;;;;;20.92;18.73;;;;;;;14.93;100.00;101361.84;3574150;40;20521;-54
2021/07/08 03:40:18;;;;;;;22.50;19.52;;;;;;;14.91;100.00;101364.41;3574233;40;20378;-51
2021/07/08 03:42:48;;;;;;;24.38;21.48;;;;;;;14.90;100.00;101361.81;3574337;40;20097;-48
2021/07/08 03:45:17;;;;;;;23.05;19.30;;;;;;;15.01;100.00;101368.91;3574164;40;20072;-50
2021/07/08 03:47:44;;;;;;;20.17;17.95;;;;;;;15.20;100.00;101367.50;3574148;40;20430;-50
2021/07/08 03:50:13;;;;;;;21.00;18.40;;;;;;;14.95;100.00;101365.34;3574093;40;20080;-50
2021/07/08 03:52:42;;;;;;;22.13;18.42;;;;;;;14.98;100.00;101361.13;3573901;40;20116;-54
2021/07/08 03:55:14;;;;;;;21.25;16.65;;;;;;;15.27;100.00;101356.47;3574196;40;20056;-51
2021/07/08 03:57:54;;;;;;;19.13;16.98;;;;;;;15.02;100.00;101360.34;3574062;40;20093;-52
2021/07/08 04:00:34;;;;;;;19.65;17.52;;;;;;;14.99;100.00;101362.84;3574003;40;20053;-51
2021/07/08 04:03:04;;;;;;;21.17;18.98;;;;;;;14.99;100.00;101365.44;3573905;40;20112;-50
2021/07/08 04:05:32;;;;;;;19.92;17.92;;;;;;;15.01;100.00;101366.31;3574378;40;20052;-53
2021/07/08 04:07:59;;;;;;;21.15;18.88;;;;;;;14.98;100.00;101365.41;3574294;40;20060;-50
2021/07/08 04:10:27;;;;;;;22.13;19.38;;;;;;;14.99;100.00;101369.72;3573775;40;20449;-50
2021/07/08 04:12:59;;;;;;;21.63;19.48;;;;;;;14.97;100.00;101372.25;3574061;40;20104;-53
2021/07/08 04:15:27;;;;;;;21.08;18.92;;;;;;;14.99;100.00;101362.00;3573869;40;20076;-52
2021/07/08 04:17:54;;;;;;;22.63;20.05;;;;;;;15.00;100.00;101359.44;3573832;40;20318;-50
2021/07/08 04:20:22;;;;;;;23.38;20.40;;;;;;;15.09;100.00;101363.88;3574020;40;20086;-50
2021/07/08 04:22:49;;;;;;;22.90;20.17;;;;;;;15.18;100.00;101366.63;3574066;40;20097;-50
2021/07/08 04:25:18;;;;;;;19.55;17.65;;;;;;;15.26;100.00;101362.47;3573890;40;20076;-50
2021/07/08 04:27:46;;;;;;;20.80;18.70;;;;;;;15.20;100.00;101366.66;3573803;40;20081;-52
2021/07/08 04:30:16;;;;;;;20.17;18.13;;;;;;;15.31;100.00;101364.28;3574122;40;20053;-49
2021/07/08 04:32:43;;;;;;;19.42;17.40;;;;;;;15.33;100.00;101371.19;3573868;40;20065;-52
2021/07/08 04:35:15;;;;;;;18.85;16.85;;;;;;;15.38;100.00;101354.06;3573958;40;20057;-51
2021/07/08 04:37:42;;;;;;;19.05;15.30;;;;;;;15.44;100.00;101363.66;3573875;40;20081;-56
2021/07/08 04:40:13;;;;;;;17.35;15.52;;;;;;;15.44;100.00;101359.34;3573790;40;20085;-49
2021/07/08 04:42:40;;;;;;;17.98;16.15;;;;;;;15.64;100.00;101358.81;3573995;40;20060;-53
2021/07/08 04:45:09;;;;;;;19.05;17.08;;;;;;;15.61;100.00;101353.56;3573871;40;20406;-56
2021/07/08 04:47:38;;;;;;;17.83;16.10;;;;;;;15.70;100.00;101361.50;3573707;40;20458;-55
2021/07/08 04:50:11;;;;;;;17.30;15.55;;;;;;;15.79;100.00;101362.50;3573962;40;20111;-50
2021/07/08 04:52:38;;;;;;;16.13;14.40;;;;;;;15.97;100.00;101366.19;3573346;40;20029;-54
2021/07/08 04:55:06;;;;;;;15.82;12.73;;;;;;;16.34;100.00;101370.16;3573989;40;20061;-54
2021/07/08 04:57:33;;;;;;;14.73;13.23;;;;;;;16.33;100.00;101368.44;3573716;40;20080;-56
2021/07/08 05:00:00;;;;;;;12.68;11.48;;;;;;;16.46;100.00;101362.56;3573538;40;20108;-53
2021/07/08 05:02:27;;;;;;;12.75;11.65;;;;;;;16.42;100.00;101360.78;3573636;40;20435;-53
2021/07/08 05:04:54;;;;;;;14.02;12.60;;;;;;;16.59;100.00;101358.38;3573616;40;20092;-57
2021/07/08 05:07:21;;;;;;;13.02;11.80;;;;;;;16.73;100.00;101356.88;3573382;40;20045;-52
2021/07/08 05:09:48;;;;;;;13.43;12.13;;;;;;;16.82;100.00;101352.63;3573818;40;20321;-56
2021/07/08 05:12:15;;;;;;;12.55;11.25;;;;;;;16.75;100.00;101350.00;3573600;40;20440;-53
2021/07/08 05:14:42;;;;;;;12.80;11.55;;;;;;;16.92;100.00;101352.78;3573424;40;20085;-53
2021/07/08 05:17:09;;;;;;;11.82;10.63;;;;;;;16.98;100.00;101357.13;3573452;40;20061;-53
2021/07/08 05:19:36;;;;;;;12.07;10.75;;;;;;;17.05;100.00;101353.75;3573702;40;20130;-54
2021/07/08 05:22:03;;;;;;;12.25;10.98;;;;;;;17.38;100.00;101344.53;3573407;40;20089;-57
2021/07/08 05:24:32;;;;;;;10.93;9.18;;;;;;;17.49;100.00;101356.72;3573434;40;20076;-51
2021/07/08 05:26:59;;;;;;;11.57;10.50;;;;;;;17.38;100.00;101349.72;3573590;40;20085;-54
2021/07/08 05:29:26;;;;;;;12.38;9.90;;;;;;;17.42;100.00;101346.31;3573122;40;21073;-56
2021/07/08 05:31:53;;;;;;;10.05;9.02;;;;;;;17.50;100.00;101347.25;3573257;40;20064;-53
2021/07/08 05:34:20;;;;;;;11.02;10.07;;;;;;;17.70;100.00;101340.50;3573120;40;20047;-53
2021/07/08 05:36:51;;;;;;;13.98;9.95;;;;;;;17.93;100.00;101348.41;3573425;40;20049;-56
2021/07/08 05:39:18;;;;;;;9.43;8.63;;;;;;;17.88;100.00;101355.31;3573234;40;20133;-54
2021/07/08 05:41:45;;;;;;;10.85;9.73;;;;;;;18.22;100.00;101346.00;3573397;40;20057;-57
2021/07/08 05:44:13;;;;;;;9.52;8.20;;;;;;;18.03;100.00;101349.38;3573231;40;20049;-53
2021/07/08 05:46:40;;;;;;;9.40;8.15;;;;;;;17.76;100.00;101356.09;3573301;40;20061;-51
2021/07/08 05:49:07;;;;;;;8.95;8.15;;;;;;;18.18;100.00;101364.13;3573175;40;20334;-56
2021/07/08 05:51:34;;;;;;;9.13;8.32;;;;;;;17.85;100.00;101368.25;3573281;40;20429;-53
2021/07/08 05:54:01;;;;;;;8.88;8.07;;;;;;;17.78;100.00;101379.44;3574808;40;20081;-57
2021/07/08 05:56:28;;;;;;;9.98;8.77;;;;;;;17.77;100.00;101369.94;3574816;40;20084;-53
2021/07/08 05:58:55;;;;;;;10.25;8.48;;;;;;;17.86;100.00;101364.81;3574338;40;20072;-56
2021/07/08 06:01:22;;;;;;;9.05;8.20;;;;;;;17.96;100.00;101374.38;3574661;40;20330;-53
2021/07/08 06:03:50;;;;;;;10.98;8.30;;;;;;;18.07;100.00;101371.84;3574873;40;20068;-53
2021/07/08 06:06:17;;;;;;;12.98;8.45;;;;;;;17.99;100.00;101378.72;3574654;40;20450;-54
2021/07/08 06:08:45;;;;;;;9.40;7.85;;;;;;;18.25;100.00;101378.84;3574636;40;20447;-51
2021/07/08 06:11:15;;;;;;;8.25;7.60;;;;;;;18.15;100.00;101390.91;3574784;40;20079;-55
2021/07/08 06:13:42;;;;;;;11.60;7.53;;;;;;;18.27;100.00;101392.69;3575376;40;20089;-52
2021/07/08 06:16:10;;;;;;;8.82;8.10;;;;;;;17.98;100.00;101393.41;3575375;40;20142;-51
2021/07/08 06:18:37;;;;;;;9.05;8.25;;;;;;;18.01;100.00;101397.72;3575492;40;20065;-53
2021/07/08 06:21:05;;;;;;;8.75;7.95;;;;;;;17.97;100.00;101399.41;3575262;40;20097;-56
2021/07/08 06:23:33;;;;;;;9.38;8.45;;;;;;;18.03;100.00;101393.44;3575051;40;20104;-53
2021/07/08 06:26:00;;;;;;;10.02;8.70;;;;;;;18.03;100.00;101396.03;3574853;40;20048;-52
2021/07/08 06:28:27;;;;;;;8.43;7.50;;;;;;;18.36;100.00;101394.47;3574518;40;20065;-53
2021/07/08 06:30:54;;;;;;;8.25;7.40;;;;;;;18.17;100.00;101390.94;3574606;40;20089;-52
2021/07/08 06:33:22;;;;;;;8.48;7.78;;;;;;;18.22;100.00;101384.03;3576187;40;20067;-57
2021/07/08 06:35:49;;;;;;;8.15;7.30;;;;;;;18.28;100.00;101378.88;3577278;40;20120;-56
2021/07/08 06:38:16;;;;;;;8.52;7.72;;;;;;;18.30;100.00;101380.63;3575245;40;20100;-56
2021/07/08 06:40:43;;;;;;;9.20;7.90;;;;;;;18.17;100.00;101388.34;3574257;40;20084;-55
2021/07/08 06:43:10;;;;;;;8.10;7.38;;;;;;;18.16;100.00;101392.63;3574575;40;20132;-55
2021/07/08 06:45:37;;;;;;;7.97;7.38;;;;;;;18.18;100.00;101392.66;3574651;40;20061;-55
2021/07/08 06:48:12;;;;;;;8.55;7.82;;;;;;;18.14;100.00;101390.91;3574433;40;20114;-51
2021/07/08 06:50:41;;;;;;;8.77;7.50;;;;;;;18.25;100.00;101378.84;3574544;40;20412;-54
2021/07/08 06:53:08;;;;;;;7.50;6.90;;;;;;;18.38;100.00;101378.06;3574535;40;20045;-57
2021/07/08 06:55:37;;;;;;;7.20;6.60;;;;;;;18.55;100.00;101381.59;3574600;40;20419;-54
2021/07/08 06:58:05;;;;;;;8.48;7.20;;;;;;;18.47;100.00;101372.91;3574515;40;20084;-56
2021/07/08 07:00:37;;;;;;;8.77;7.15;;;;;;;18.48;100.00;101373.75;3574355;40;20089;-55
2021/07/08 07:03:05;;;;;;;10.07;7.53;;;;;;;18.63;100.00;101368.66;3574395;40;20060;-52
2021/07/08 07:05:33;;;;;;;7.28;6.57;;;;;;;18.53;100.00;101377.25;3574340;40;20053;-52
2021/07/08 07:08:00;;;;;;;8.32;7.30;;;;;;;18.67;100.00;101375.56;3574322;40;20056;-51
2021/07/08 07:10:28;;;;;;;7.22;6.60;;;;;;;18.77;100.00;101376.53;3574180;40;20113;-57
2021/07/08 07:12:57;;;;;;;7.68;6.20;;;;;;;18.80;100.00;101382.56;3574112;40;20101;-52
2021/07/08 07:15:26;;;;;;;8.77;6.63;;;;;;;18.71;100.00;101379.94;3574319;40;20052;-54
2021/07/08 07:17:54;;;;;;;7.53;6.80;;;;;;;18.63;100.00;101388.56;3574189;40;20112;-52
2021/07/08 07:20:21;;;;;;;8.23;6.82;;;;;;;18.85;100.00;101384.31;3574370;40;20101;-53
2021/07/08 07:22:49;;;;;;;8.65;6.47;;;;;;;19.02;100.00;101393.88;3574383;40;20060;-54
2021/07/08 07:25:22;;;;;;;7.72;6.63;;;;;;;19.01;100.00;101405.13;3574362;40;20075;-52
2021/07/08 07:27:51;;;;;;;6.88;6.05;;;;;;;19.15;100.00;101402.56;3574427;40;20427;-57
2021/07/08 07:30:24;;;;;;;7.35;6.65;;;;;;;19.03;100.00;101397.34;3574246;40;20077;-52
2021/07/08 07:32:53;;;;;;;6.53;6.07;;;;;;;18.98;100.00;101399.91;3574091;40;20116;-55
2021/07/08 07:35:21;;;;;;;6.50;6.00;;;;;;;18.76;100.00;101387.72;3574348;40;20053;-50
2021/07/08 07:37:49;;;;;;;8.00;7.35;;;;;;;18.81;100.00;101388.63;3574666;40;20060;-51
2021/07/08 07:40:18;;;;;;;8.27;6.60;;;;;;;18.89;100.00;101386.91;3574526;40;20097;-50
2021/07/08 07:42:47;;;;;;;7.40;6.70;;;;;;;19.00;100.00;101386.97;3574301;40;20067;-54
2021/07/08 07:45:15;;;;;;;8.10;7.43;;;;;;;18.86;100.00;101386.94;3574182;40;20077;-52
2021/07/08 07:47:42;;;;;;;7.50;6.90;;;;;;;18.75;100.00;101393.78;3574115;40;20086;-52
2021/07/08 07:50:10;;;;;;;11.63;7.13;;;;;;;18.74;100.00;101405.03;3574132;40;20097;-53
2021/07/08 07:52:37;;;;;;;8.02;7.25;;;;;;;18.95;100.00;101396.44;3574041;40;20116;-51
2021/07/08 07:55:05;;;;;;;7.75;6.97;;;;;;;19.44;100.00;101400.00;3574117;40;20057;-53
2021/07/08 07:57:33;;;;;;;7.43;6.80;;;;;;;19.69;100.00;101405.22;3574067;40;20068;-52
2021/07/08 08:00:04;;;;;;;7.30;6.70;;;;;;;19.64;100.00;101399.16;3574235;40;20069;-55
2021/07/08 08:02:31;;;;;;;7.88;7.18;;;;;;;19.62;100.00;101395.69;3574290;40;20057;-52
2021/07/08 08:10:19;;;;;;;;;;;;;;;19.62;100.00;101380.97;3574421;40;20079;-53
2021/07/08 08:12:48;;;;;;;8.13;6.13;;;;;;;19.92;100.00;101369.69;3573796;40;20303;-52
2021/07/08 08:15:17;;;;;;;8.43;6.55;;;;;;;20.68;100.00;101372.91;3573473;40;20070;-53
2021/07/08 08:17:46;;;;;;;6.55;5.97;;;;;;;20.98;100.00;101371.84;3573707;40;20093;-52
2021/07/08 08:20:15;;;;;;;7.05;5.95;;;;;;;19.97;100.00;101375.75;3573868;40;20061;-51
2021/07/08 08:22:43;;;;;;;5.82;5.32;;;;;;;20.53;100.00;101382.53;3574090;40;20042;-51
2021/07/08 08:25:11;;;;;;;9.50;5.90;;;;;;;20.02;100.00;101391.34;3573903;40;20076;-54
2021/07/08 08:27:39;;;;;;;6.43;5.82;;;;;;;20.33;100.00;101398.16;3574056;40;20111;-51
2021/07/08 08:30:08;;;;;;;5.53;5.03;;;;;;;20.26;100.00;101393.84;3574264;40;20088;-53
2021/07/08 08:32:35;;;;;;;8.77;5.25;;;;;;;21.06;97.91;101409.13;3574052;40;20312;-55
2021/07/08 08:35:02;;;;;;;6.00;5.00;;;;;;;21.08;99.70;101402.19;3574135;40;20430;-50
2021/07/08 08:37:29;;;;;;;8.18;5.07;;;;;;;21.32;97.67;101403.81;3573742;40;20037;-51
2021/07/08 08:39:56;;;;;;;6.30;4.70;;;;;;;20.78;98.09;101401.47;3574055;40;20081;-53
2021/07/08 08:42:27;;;;;;;4.95;4.55;;;;;;;21.03;97.58;101410.03;3573991;40;20085;-54
2021/07/08 08:44:55;;;;;;;4.70;4.40;;;;;;;21.39;95.80;101407.22;3573972;40;20112;-52
2021/07/08 08:47:23;;;;;;;4.80;3.88;;;;;;;21.74;96.28;101406.94;3573688;40;20063;-56
2021/07/08 08:49:55;;;;;;;4.03;3.72;;;;;;;21.91;94.16;101404.16;3573636;40;20056;-53
2021/07/08 08:52:26;;;;;;;4.03;3.63;;;;;;;21.71;91.92;101406.94;3573506;40;20049;-53
2021/07/08 08:54:53;;;;;;;4.95;3.47;;;;;;;21.33;92.94;101409.00;3573723;40;20084;-52
2021/07/08 08:57:20;;;;;;;3.47;3.17;;;;;;;21.44;90.21;101408.91;3573639;40;20097;-51
2021/07/08 08:59:47;;;;;;;3.90;3.58;;;;;;;20.88;93.25;101404.03;3573633;40;20128;-54
2021/07/08 09:02:19;;;;;;;4.57;3.90;;;;;;;20.76;93.38;101407.59;3573832;40;20712;-52
2021/07/08 09:04:48;;;;;;;5.93;4.22;;;;;;;20.77;95.43;101402.38;3573707;40;20057;-54
2021/07/08 09:07:23;;;;;;;4.45;3.47;;;;;;;20.84;95.02;101393.66;3573481;40;20062;-52
2021/07/08 09:10:09;;;;;;;5.40;3.78;;;;;;;21.02;96.99;101397.00;3573284;40;20108;-54
2021/07/08 09:12:36;;;;;;;;;;;;;;;20.92;96.79;101393.59;3574220;40;20090;-52
2021/07/08 09:15:21;;;;;;;4.43;3.85;;;;;;;21.00;93.01;101391.81;3573687;40;19956;-56
2021/07/08 09:17:48;;;;;;;4.22;3.92;;;;;;;21.43;91.07;101396.75;3573221;40;20069;-56
2021/07/08 09:20:19;;;;;;;9.10;4.47;;;;;;;20.79;96.83;101392.78;3573511;40;20914;-53
2021/07/08 09:22:48;;;;;;;6.18;4.20;;;;;;;20.63;96.07;101398.09;3573456;40;20060;-51
2021/07/08 09:25:21;;;;;;;4.70;4.32;;;;;;;20.70;96.61;101397.19;3573273;40;20347;-53
2021/07/08 09:28:10;;;;;;;4.35;3.92;;;;;;;20.88;94.74;101393.63;3573897;40;20328;-54
2021/07/08 09:30:38;;;;;;;4.90;4.45;;;;;;;21.47;93.20;101397.59;3575190;40;20353;-55
2021/07/08 09:33:38;;;;;;;5.93;4.25;;;;;;;21.71;93.36;101412.16;3574891;40;20048;-54
2021/07/08 09:36:16;;;;;;;4.78;4.28;;;;;;;21.85;90.38;101408.56;3574883;40;20064;-55
2021/07/08 09:38:55;;;;;;;7.88;4.22;;;;;;;22.19;90.10;101418.69;3574513;40;20052;-51
2021/07/08 09:41:24;;;;;;;4.85;3.67;;;;;;;23.18;83.58;101424.41;3574684;40;20458;-52
2021/07/08 09:43:52;;;;;;;6.00;4.40;;;;;;;22.48;85.91;101423.59;3574625;40;20056;-55
2021/07/08 09:46:34;;;;;;;5.50;4.43;;;;;;;22.42;85.77;101417.56;3574735;40;20068;-53
2021/07/08 09:49:07;;;;;;;6.63;4.63;;;;;;;22.21;88.03;101414.31;3574546;40;20084;-53
2021/07/08 09:51:36;;;;;;;5.60;4.15;;;;;;;22.49;84.81;101399.19;3574890;40;20134;-58
2021/07/08 09:54:12;;;;;;;5.22;4.60;;;;;;;22.65;86.21;101404.22;3574625;40;20056;-56
2021/07/08 09:56:45;;;;;;;5.05;4.25;;;;;;;22.34;86.66;101405.47;3574614;40;20051;-52
2021/07/08 09:59:14;;;;;;;8.02;5.03;;;;;;;22.21;87.62;101401.28;3574649;40;20060;-54
2021/07/08 10:01:44;;;;;;;5.72;4.53;;;;;;;22.28;86.73;101407.31;3574832;40;20056;-50
2021/07/08 10:04:11;;;;;;;8.43;5.28;;;;;;;22.50;87.94;101408.75;3574793;40;20415;-53
2021/07/08 10:06:38;;;;;;;7.00;4.57;;;;;;;22.47;86.63;101421.00;3575092;40;20041;-55
2021/07/08 10:09:06;;;;;;;6.30;4.63;;;;;;;22.55;87.07;101429.59;3575061;40;20328;-49
2021/07/08 10:11:34;;;;;;;4.35;3.95;;;;;;;22.30;87.48;101431.63;3575000;40;20141;-54
2021/07/08 10:14:03;;;;;;;5.45;4.50;;;;;;;22.31;86.20;101434.19;3574787;40;20053;-53
2021/07/08 10:16:32;;;;;;;4.80;4.32;;;;;;;21.97;87.94;101438.03;3574470;40;20065;-51
2021/07/08 10:19:03;;;;;;;4.43;3.85;;;;;;;21.94;88.78;101433.69;3574490;40;20069;-54
2021/07/08 10:21:30;;;;;;;4.82;3.65;;;;;;;21.83;89.91;101439.00;3574596;40;20108;-53
2021/07/08 10:24:00;;;;;;;7.00;4.18;;;;;;;21.50;91.64;101423.66;3574341;40;20081;-53
2021/07/08 10:26:27;;;;;;;5.90;4.22;;;;;;;21.44;93.23;101428.88;3574592;40;20096;-55
2021/07/08 10:28:56;;;;;;;10.73;4.10;;;;;;;21.05;92.58;101423.03;3574599;40;20116;-53
2021/07/08 10:31:25;;;;;;;5.03;4.40;;;;;;;21.15;93.36;101432.53;3574420;40;20057;-53
2021/07/08 10:34:08;;;;;;;5.55;4.00;;;;;;;21.33;95.33;101426.38;3574446;40;20061;-56
2021/07/08 10:36:36;;;;;;;5.15;4.07;;;;;;;21.34;94.89;101428.09;3574603;40;20425;-53
2021/07/08 10:39:06;;;;;;;6.05;3.72;;;;;;;21.51;92.63;101422.78;3574098;40;20049;-52
2021/07/08 10:41:36;;;;;;;5.38;3.95;;;;;;;21.00;95.80;101415.25;3574350;40;20171;-51
2021/07/08 10:44:03;;;;;;;4.55;3.83;;;;;;;21.34;91.99;101420.28;3574520;40;20057;-53
2021/07/08 10:46:50;;;;;;;3.88;3.55;;;;;;;21.18;93.52;101416.03;3574357;40;20044;-53
2021/07/08 10:49:18;;;;;;;3.55;3.25;;;;;;;21.22;89.86;101423.81;3574284;40;20112;-53
2021/07/08 10:51:45;;;;;;;3.47;3.05;;;;;;;21.05;88.64;101423.03;3574720;40;20112;-53
2021/07/08 10:54:26;;;;;;;3.33;2.85;;;;;;;21.24;90.27;101418.59;3574599;40;20056;-55
2021/07/08 10:56:54;;;;;;;3.40;3.13;;;;;;;21.10;90.97;101419.53;3574363;40;20574;-54
2021/07/08 10:59:22;;;;;;;4.68;2.80;;;;;;;21.07;94.51;101410.88;3574444;40;20131;-53
2021/07/08 11:01:54;;;;;;;8.45;3.13;;;;;;;21.03;88.67;101412.66;3574451;40;20083;-54
2021/07/08 11:04:48;;;;;;;7.10;3.17;;;;;;;21.19;89.80;101410.81;3574574;40;20064;-54
2021/07/08 11:07:21;;;;;;;3.03;2.80;;;;;;;21.17;90.38;101403.84;3574289;40;20433;-54
2021/07/08 11:10:03;;;;;;;5.28;2.97;;;;;;;21.28;89.41;101402.06;3574408;40;20041;-53
2021/07/08 11:12:35;;;;;;;3.78;2.53;;;;;;;21.50;86.77;101411.47;3574314;40;20053;-57
2021/07/08 11:15:05;;;;;;;3.92;2.85;;;;;;;21.41;86.79;101406.34;3574607;40;20097;-51
2021/07/08 11:17:40;;;;;;;4.68;2.70;;;;;;;21.65;85.53;101405.28;3574314;40;20064;-53
2021/07/08 11:20:29;;;;;;;5.18;3.10;;;;;;;21.89;86.44;101403.31;3574363;40;20033;-53
2021/07/08 11:23:16;;;;;;;6.60;2.92;;;;;;;22.00;84.00;101406.66;3573944;40;20088;-52
2021/07/08 11:25:43;;;;;;;4.38;3.20;;;;;;;22.38;85.71;101411.53;3574035;40;20056;-51